Time;durP1;ratioP1;P1;durP2;ratioP2;P2;SDS_P1;SDS_P2;PMS_P1;PMS_P2;Temp;Humidity;BMP_temperature;BMP_pressure;BME280_temperature;BME280_humidity;BME280_pressure;Samples;Min_cycle;Max_cycle;Signal;HPM_P1;HPM_P2
2022/02/14 00:01:19;;;;;;;8.05;3.70;;;;;;;-142.75;100.00;76023.09;5050709;28;20025;-68
2022/02/14 00:03:44;;;;;;;10.52;4.05;;;;;;;-142.75;100.00;76025.06;5051848;28;20090;-68
2022/02/14 00:06:10;;;;;;;8.27;2.92;;;;;;;-142.75;100.00;76013.25;5052003;28;20020;-68
2022/02/14 00:08:35;;;;;;;13.93;4.03;;;;;;;-142.75;100.00;76023.09;5052206;28;20037;-68
2022/02/14 00:11:00;;;;;;;10.52;3.60;;;;;;;-142.75;100.00;76009.31;5050813;28;20021;-68
2022/02/14 00:13:25;;;;;;;11.83;3.90;;;;;;;-142.75;100.00;76005.38;5051870;28;20036;-68
2022/02/14 00:15:52;;;;;;;10.73;3.50;;;;;;;-142.75;100.00;76009.31;5030655;28;20287;-69
2022/02/14 00:18:18;;;;;;;9.15;4.38;;;;;;;-142.75;100.00;76011.28;5031474;28;20688;-69
2022/02/14 00:20:43;;;;;;;14.32;3.90;;;;;;;-142.75;100.00;76003.41;5030540;28;20029;-68
2022/02/14 00:23:08;;;;;;;10.93;3.85;;;;;;;-142.75;100.00;76019.16;5031783;28;20108;-68
2022/02/14 00:25:34;;;;;;;7.13;3.20;;;;;;;-142.75;100.00;75993.56;5031825;28;20100;-69
2022/02/14 00:27:59;;;;;;;8.02;3.30;;;;;;;-142.75;100.00;75991.59;5031440;28;20084;-69
2022/02/14 00:30:25;;;;;;;13.57;3.42;;;;;;;-142.75;100.00;75987.66;5031793;28;20037;-69
2022/02/14 00:32:50;;;;;;;13.85;4.13;;;;;;;-142.75;100.00;76007.34;5031374;28;20510;-67
2022/02/14 00:35:16;;;;;;;11.90;4.03;;;;;;;-142.75;100.00;75971.91;5030431;28;20033;-69
2022/02/14 00:37:42;;;;;;;7.80;3.88;;;;;;;-142.75;100.00;75985.69;5031499;28;20021;-69
2022/02/14 00:40:08;;;;;;;;;;;;;;;-142.75;100.00;75977.81;5032257;28;20025;-68
2022/02/14 00:42:33;;;;;;;10.30;4.00;;;;;;;-142.75;100.00;75964.03;5031340;28;19963;-68
2022/02/14 00:44:58;;;;;;;8.10;3.55;;;;;;;-142.75;100.00;75993.56;5030232;28;20021;-69
2022/02/14 00:47:24;;;;;;;8.05;3.40;;;;;;;-142.75;100.00;75966.00;5031417;28;20029;-69
2022/02/14 00:49:49;;;;;;;8.97;4.40;;;;;;;-142.75;100.00;75962.09;5030672;28;20037;-69
2022/02/14 00:52:14;;;;;;;12.68;3.40;;;;;;;-142.75;100.00;75958.16;5031369;28;20260;-67
2022/02/14 00:54:40;;;;;;;12.02;3.50;;;;;;;-142.75;100.00;75952.25;5030569;28;20040;-69
2022/02/14 00:57:05;;;;;;;6.83;3.10;;;;;;;-142.75;100.00;75944.38;5031341;28;20052;-69
2022/02/14 00:59:30;;;;;;;8.77;3.10;;;;;;;-142.75;100.00;75936.50;5030645;28;20355;-69
2022/02/14 01:01:55;;;;;;;7.47;3.23;;;;;;;-142.75;100.00;75938.47;5029814;28;20284;-68
2022/02/14 01:04:21;;;;;;;12.40;3.72;;;;;;;-142.75;100.00;75924.69;5031018;28;20359;-68
2022/02/14 01:06:46;;;;;;;11.65;3.30;;;;;;;-142.75;100.00;75918.78;5029809;28;20029;-68
2022/02/14 01:09:12;;;;;;;9.00;3.50;;;;;;;-142.75;100.00;75910.91;5031225;28;20026;-68
2022/02/14 01:11:38;;;;;;;9.80;3.80;;;;;;;-142.75;100.00;75916.81;5031645;28;20017;-69
2022/02/14 01:14:04;;;;;;;13.27;4.07;;;;;;;-142.75;100.00;75905.00;5049612;28;20028;-68
2022/02/14 01:16:29;;;;;;;10.82;3.30;;;;;;;-142.75;100.00;75899.09;5050625;28;20029;-69
2022/02/14 01:18:54;;;;;;;6.67;3.03;;;;;;;-142.75;100.00;75903.03;5050220;28;20028;-69
2022/02/14 01:21:20;;;;;;;11.00;3.50;;;;;;;-142.75;100.00;75895.16;5050437;28;20291;-68
2022/02/14 01:23:45;;;;;;;13.07;3.53;;;;;;;-142.75;100.00;75893.19;5050551;28;20283;-68
2022/02/14 01:26:10;;;;;;;12.15;3.30;;;;;;;-142.75;100.00;75877.44;5050453;28;20647;-68
2022/02/14 01:28:36;;;;;;;7.60;3.78;;;;;;;-142.75;100.00;75883.34;5049982;28;20078;-69
2022/02/14 01:31:01;;;;;;;5.88;2.90;;;;;;;-142.75;100.00;75871.53;5049152;28;20017;-68
2022/02/14 01:33:26;;;;;;;11.60;3.88;;;;;;;-142.75;100.00;75869.56;5050236;28;20399;-68
2022/02/14 01:35:52;;;;;;;13.88;3.53;;;;;;;-142.75;100.00;75881.38;5033369;28;20021;-69
2022/02/14 01:38:17;;;;;;;8.80;3.13;;;;;;;-142.75;100.00;75877.44;5030305;28;20022;-68
2022/02/14 01:40:43;;;;;;;11.27;3.00;;;;;;;-142.75;100.00;75885.31;5030885;28;20032;-69
2022/02/14 01:43:08;;;;;;;6.93;2.72;;;;;;;-142.75;100.00;75877.44;5030333;28;20569;-67
2022/02/14 01:45:34;;;;;;;13.40;3.22;;;;;;;-142.75;100.00;75885.31;5030143;28;20053;-68
2022/02/14 01:47:59;;;;;;;9.40;3.13;;;;;;;-142.75;100.00;75881.38;5028425;28;20029;-68
2022/02/14 01:50:24;;;;;;;11.25;2.50;;;;;;;-142.75;100.00;75877.44;5030276;28;20025;-69
2022/02/14 01:52:54;;;;;;;8.85;2.83;;;;;;;-142.75;100.00;75885.31;5030179;28;20037;-67
2022/02/14 01:55:20;;;;;;;7.90;2.60;;;;;;;-142.75;100.00;75903.03;5047709;28;20086;-68
2022/02/14 01:57:45;;;;;;;11.75;3.83;;;;;;;-142.75;100.00;75899.09;5049746;28;20395;-69
2022/02/14 02:00:14;;;;;;;10.30;3.40;;;;;;;-142.75;100.00;75903.03;5049431;28;20062;-69
2022/02/14 02:02:40;;;;;;;9.65;2.97;;;;;;;-142.75;100.00;75891.22;5048343;28;20024;-68
2022/02/14 02:05:07;;;;;;;10.02;2.80;;;;;;;-142.75;100.00;75899.09;5049690;28;20571;-69
2022/02/14 02:07:32;;;;;;;9.05;2.60;;;;;;;-142.75;100.00;75893.19;5048673;28;20028;-68
2022/02/14 02:09:58;;;;;;;9.27;2.65;;;;;;;-142.75;100.00;75877.44;5050279;28;20055;-68
2022/02/14 02:12:23;;;;;;;8.25;2.65;;;;;;;-142.75;100.00;75881.38;5048306;28;20107;-68
2022/02/14 02:15:00;;;;;;;7.88;2.80;;;;;;;-142.75;100.00;75865.63;5049658;28;20036;-69
2022/02/14 02:17:28;;;;;;;;;;;;;;;-142.75;100.00;75873.50;5050014;28;20028;-68
2022/02/14 02:19:53;;;;;;;9.68;2.15;;;;;;;-142.75;100.00;75869.56;5049183;28;19936;-68
2022/02/14 02:22:19;;;;;;;6.20;2.83;;;;;;;-142.75;100.00;75863.66;5048161;28;20056;-69
2022/02/14 02:24:46;;;;;;;12.00;2.50;;;;;;;-142.75;100.00;75857.78;5049468;28;20027;-68
2022/02/14 02:27:12;;;;;;;8.40;2.03;;;;;;;-142.75;100.00;75859.72;5048045;28;20029;-68
2022/02/14 02:29:38;;;;;;;10.15;2.70;;;;;;;-142.75;100.00;75871.53;5049054;28;20108;-68
2022/02/14 02:32:05;;;;;;;;;;;;;;;-142.75;100.00;75859.72;5043284;28;20021;-69
2022/02/14 02:34:31;;;;;;;7.05;2.47;;;;;;;-142.75;100.00;75869.56;5028240;28;20003;-69
2022/02/14 02:36:58;;;;;;;6.78;2.13;;;;;;;-142.75;100.00;75855.81;5029641;28;20101;-68
2022/02/14 02:39:25;;;;;;;6.63;2.28;;;;;;;-142.75;100.00;75869.56;5029835;28;20029;-68
2022/02/14 02:41:50;;;;;;;;;;;;;;;-142.75;100.00;75873.50;5048322;28;20029;-68
2022/02/14 02:44:16;;;;;;;8.18;2.17;;;;;;;-142.75;100.00;75869.56;5049248;28;19966;-68
2022/02/14 02:46:42;;;;;;;9.20;2.70;;;;;;;-142.75;100.00;75871.53;5047907;28;20112;-69
2022/02/14 02:49:22;;;;;;;8.63;2.03;;;;;;;-142.75;100.00;75883.34;5047280;28;20566;-68
2022/02/14 02:51:52;;;;;;;8.13;2.22;;;;;;;-142.75;100.00;75871.53;5049309;28;20395;-68
2022/02/14 02:54:20;;;;;;;7.45;2.75;;;;;;;-142.75;100.00;75873.50;5049214;28;20030;-68
2022/02/14 02:56:47;;;;;;;6.20;1.95;;;;;;;-142.75;100.00;75845.97;5048938;28;20033;-68
2022/02/14 02:59:12;;;;;;;5.32;1.95;;;;;;;-142.75;100.00;75849.91;5035493;28;20476;-68
2022/02/14 03:01:39;;;;;;;6.65;1.85;;;;;;;-142.75;100.00;75857.78;5029371;28;20032;-69
2022/02/14 03:04:06;;;;;;;5.80;1.80;;;;;;;-142.75;100.00;75853.84;5027858;28;20116;-68
2022/02/14 03:06:32;;;;;;;9.80;1.73;;;;;;;-142.75;100.00;75847.94;5029341;28;20135;-68
2022/02/14 03:08:58;;;;;;;5.47;2.13;;;;;;;-142.75;100.00;75836.13;5029289;28;20109;-69
2022/02/14 03:11:24;;;;;;;7.03;2.45;;;;;;;-142.75;100.00;75814.47;5029365;28;20024;-68
2022/02/14 03:13:50;;;;;;;;;;;;;;;-142.75;100.00;75822.34;5029851;28;20071;-68
2022/02/14 03:16:16;;;;;;;8.02;1.98;;;;;;;-142.75;100.00;75792.81;5029095;28;19916;-68
2022/02/14 03:18:42;;;;;;;12.98;2.35;;;;;;;-142.75;100.00;75798.72;5030743;28;20487;-68
2022/02/14 03:21:09;;;;;;;7.30;1.95;;;;;;;-142.75;100.00;75806.59;5032966;28;20026;-69
2022/02/14 03:23:35;;;;;;;10.95;1.98;;;;;;;-142.75;100.00;75798.72;5031651;28;20104;-68
2022/02/14 03:26:00;;;;;;;;;;;;;;;-142.75;100.00;75790.84;5042063;28;20025;-68
2022/02/14 03:28:26;;;;;;;5.55;1.70;;;;;;;-142.75;100.00;75782.97;5033707;28;19919;-68
2022/02/14 03:30:51;;;;;;;8.25;2.33;;;;;;;-142.75;100.00;75804.63;5031525;28;20498;-68
2022/02/14 03:33:17;;;;;;;6.90;1.58;;;;;;;-142.75;100.00;75788.88;5032916;28;20044;-69
2022/02/14 03:35:42;;;;;;;5.03;1.60;;;;;;;-142.75;100.00;75771.16;5037127;28;20022;-66
2022/02/14 03:38:08;;;;;;;7.15;2.20;;;;;;;-142.75;100.00;75779.03;5032541;28;20029;-68
2022/02/14 03:40:34;;;;;;;4.80;1.63;;;;;;;-142.75;100.00;75782.97;5033414;28;20083;-68
2022/02/14 03:43:01;;;;;;;7.28;2.20;;;;;;;-142.75;100.00;75767.22;5032641;28;20021;-68
2022/02/14 03:45:26;;;;;;;5.50;1.88;;;;;;;-142.75;100.00;75761.34;5032508;28;20017;-68
2022/02/14 03:47:52;;;;;;;4.55;1.77;;;;;;;-142.75;100.00;75806.59;5032130;28;20380;-67
2022/02/14 03:50:17;;;;;;;9.13;2.08;;;;;;;-142.75;100.00;75757.41;5079551;23;20067;-66
2022/02/14 03:52:42;;;;;;;5.78;1.60;;;;;;;-142.75;100.00;75767.22;5070421;28;20103;-64
2022/02/14 03:55:08;;;;;;;6.05;1.85;;;;;;;-142.75;100.00;75767.22;5072203;28;20033;-67
2022/02/14 03:57:34;;;;;;;5.57;1.85;;;;;;;-142.75;100.00;75790.84;5072172;28;20375;-65
2022/02/14 03:59:59;;;;;;;6.13;1.73;;;;;;;-142.75;100.00;75771.16;5070315;28;20047;-66
2022/02/14 04:02:25;;;;;;;4.47;1.98;;;;;;;-142.75;100.00;75779.03;5070769;28;20024;-66
2022/02/14 04:04:50;;;;;;;9.57;2.00;;;;;;;-142.75;100.00;75771.16;5072101;28;20663;-66
2022/02/14 04:07:15;;;;;;;6.07;2.03;;;;;;;-142.75;100.00;75779.03;5071972;28;20036;-66
2022/02/14 04:09:41;;;;;;;8.40;2.50;;;;;;;-142.75;100.00;75753.47;5070986;28;20051;-66
2022/02/14 04:12:06;;;;;;;8.90;2.20;;;;;;;-142.75;100.00;75759.38;5070696;28;20297;-66
2022/02/14 04:14:31;;;;;;;4.95;2.08;;;;;;;-142.75;100.00;75761.34;5072160;28;20293;-67
2022/02/14 04:16:57;;;;;;;7.97;2.00;;;;;;;-142.75;100.00;75779.03;5071269;28;20307;-67
2022/02/14 04:19:22;;;;;;;4.50;1.67;;;;;;;-142.75;100.00;75769.19;5071832;28;20710;-66
2022/02/14 04:21:47;;;;;;;6.27;1.77;;;;;;;-142.75;100.00;75767.22;5072704;28;20382;-66
2022/02/14 04:24:12;;;;;;;6.18;1.80;;;;;;;-142.75;100.00;75755.44;5070489;28;20625;-67
2022/02/14 04:26:38;;;;;;;5.32;1.95;;;;;;;-142.75;100.00;75763.28;5071630;28;20624;-67
2022/02/14 04:29:03;;;;;;;4.70;1.98;;;;;;;-142.75;100.00;75765.25;5070322;28;20024;-66
2022/02/14 04:31:28;;;;;;;6.63;2.08;;;;;;;-142.75;100.00;75771.16;5071225;28;20021;-67
2022/02/14 04:33:54;;;;;;;3.47;1.75;;;;;;;-142.75;100.00;75779.03;5070302;28;20069;-67
2022/02/14 04:36:19;;;;;;;7.97;2.00;;;;;;;-142.75;100.00;75775.09;5071425;28;20033;-66
2022/02/14 04:38:44;;;;;;;9.15;1.88;;;;;;;-142.75;100.00;75775.09;5069682;28;20303;-67
2022/02/14 04:41:10;;;;;;;9.05;2.13;;;;;;;-142.75;100.00;75763.28;5070670;28;20079;-66
2022/02/14 04:43:35;;;;;;;8.38;2.20;;;;;;;-142.75;100.00;75786.91;5054869;28;20402;-67
2022/02/14 04:46:00;;;;;;;8.17;2.20;;;;;;;-142.75;100.00;75800.69;5050197;28;20033;-66
2022/02/14 04:48:27;;;;;;;6.32;1.95;;;;;;;-142.75;100.00;75777.06;5049672;28;20021;-66
2022/02/14 04:50:52;;;;;;;3.08;1.33;;;;;;;-142.75;100.00;75798.72;5051297;28;20032;-67
2022/02/14 04:53:18;;;;;;;4.00;1.90;;;;;;;-142.75;100.00;75784.94;5051206;28;20146;-67
2022/02/14 04:55:43;;;;;;;4.72;1.80;;;;;;;-142.75;100.00;75798.72;5051319;28;20649;-67
2022/02/14 04:58:08;;;;;;;6.35;1.80;;;;;;;-142.75;100.00;75806.59;5051504;28;20402;-66
2022/02/14 05:00:34;;;;;;;5.57;1.77;;;;;;;-142.75;100.00;75786.91;5051594;28;20070;-68
2022/02/14 05:02:59;;;;;;;4.78;1.35;;;;;;;-142.75;100.00;75796.75;5051562;28;20478;-67
2022/02/14 05:05:24;;;;;;;4.00;1.60;;;;;;;-142.75;100.00;75804.63;5051615;28;20622;-67
2022/02/14 05:07:50;;;;;;;6.03;1.90;;;;;;;-142.75;100.00;75792.81;5051351;28;20271;-66
2022/02/14 05:10:16;;;;;;;7.63;1.67;;;;;;;-142.75;100.00;75800.69;5051406;28;20435;-67
2022/02/14 05:12:42;;;;;;;4.57;1.90;;;;;;;-142.75;100.00;75804.63;5051108;28;20036;-67
2022/02/14 05:15:08;;;;;;;7.35;2.05;;;;;;;-142.75;100.00;75808.56;5049479;28;20024;-67
2022/02/14 05:17:34;;;;;;;6.35;1.85;;;;;;;-142.75;100.00;75826.28;5049451;28;20020;-67
2022/02/14 05:20:00;;;;;;;11.15;2.30;;;;;;;-142.75;100.00;75822.34;5050365;28;20071;-67
2022/02/14 05:22:25;;;;;;;4.82;2.20;;;;;;;-142.75;100.00;75836.13;5050610;28;20427;-67
2022/02/14 05:24:50;;;;;;;6.82;2.45;;;;;;;-142.75;100.00;75861.69;5067387;28;20020;-67
2022/02/14 05:27:16;;;;;;;7.18;2.30;;;;;;;-142.75;100.00;75863.66;5070325;28;20394;-66
2022/02/14 05:29:42;;;;;;;10.77;2.17;;;;;;;-142.75;100.00;75871.53;5069911;28;20024;-67
2022/02/14 05:32:07;;;;;;;7.57;2.25;;;;;;;-142.75;100.00;75875.47;5069087;28;20394;-67
2022/02/14 05:34:33;;;;;;;4.57;1.98;;;;;;;-142.75;100.00;75885.31;5069955;28;20028;-66
2022/02/14 05:36:58;;;;;;;4.05;1.48;;;;;;;-142.75;100.00;75901.06;5070144;28;20017;-67
2022/02/14 05:39:23;;;;;;;3.87;2.00;;;;;;;-142.75;100.00;75879.41;5070155;28;20025;-66
2022/02/14 05:41:48;;;;;;;5.15;2.15;;;;;;;-142.75;100.00;75869.56;5068925;28;20708;-67
2022/02/14 05:44:14;;;;;;;6.85;1.95;;;;;;;-142.75;100.00;75881.38;5058679;28;20025;-67
2022/02/14 05:46:39;;;;;;;6.78;2.33;;;;;;;-142.75;100.00;75889.25;5050315;28;20025;-66
2022/02/14 05:49:04;;;;;;;5.37;2.20;;;;;;;-142.75;100.00;75883.34;5049647;28;20070;-68
2022/02/14 05:51:30;;;;;;;5.50;1.85;;;;;;;-142.75;100.00;75905.00;5049159;28;20777;-65
2022/02/14 05:53:55;;;;;;;4.20;2.20;;;;;;;-142.75;100.00;75920.75;5049982;28;20017;-66
2022/02/14 05:56:20;;;;;;;5.22;1.95;;;;;;;-142.75;100.00;75906.97;5063424;28;20024;-67
2022/02/14 05:58:46;;;;;;;6.15;2.40;;;;;;;-142.75;100.00;75936.50;5068195;28;20033;-67
2022/02/14 06:01:11;;;;;;;8.35;2.35;;;;;;;-142.75;100.00;75952.25;5069815;28;20044;-67
2022/02/14 06:03:36;;;;;;;9.15;3.00;;;;;;;-142.75;100.00;75958.16;5069600;28;20016;-66
2022/02/14 06:06:02;;;;;;;5.90;2.13;;;;;;;-142.75;100.00;75973.88;5069784;28;20024;-67
2022/02/14 06:08:27;;;;;;;5.97;2.58;;;;;;;-142.75;100.00;76007.34;5069284;28;20067;-67
2022/02/14 06:10:53;;;;;;;8.87;1.83;;;;;;;-142.75;100.00;76042.78;5070503;28;20371;-67
2022/02/14 06:13:18;;;;;;;7.43;2.08;;;;;;;-142.75;100.00;76074.25;5068285;28;20263;-67
2022/02/14 06:15:44;;;;;;;4.82;1.88;;;;;;;-142.75;100.00;76101.81;5069696;28;20063;-67
2022/02/14 06:18:10;;;;;;;6.10;1.70;;;;;;;-142.75;100.00;76123.47;5067949;28;20024;-67
2022/02/14 06:20:36;;;;;;;5.70;1.52;;;;;;;-142.75;100.00;76135.28;5051614;28;20029;-67
2022/02/14 06:23:02;;;;;;;7.55;1.77;;;;;;;-142.75;100.00;76154.97;5050049;28;20033;-67
2022/02/14 06:25:27;;;;;;;5.55;1.63;;;;;;;-142.75;100.00;76168.75;5050118;28;20043;-67
2022/02/14 06:27:52;;;;;;;3.03;1.38;;;;;;;-142.75;100.00;76184.50;5048649;28;20390;-66
2022/02/14 06:30:19;;;;;;;4.67;1.43;;;;;;;-142.75;100.00;76184.50;5049639;28;20048;-68
2022/02/14 06:32:45;;;;;;;4.05;1.50;;;;;;;-142.75;100.00;76196.31;5050422;28;20267;-68
2022/02/14 06:35:10;;;;;;;6.45;1.90;;;;;;;-142.75;100.00;76200.25;5051767;28;20033;-68
2022/02/14 06:37:36;;;;;;;3.40;1.67;;;;;;;-142.75;100.00;76208.09;5051773;28;20021;-67
2022/02/14 06:40:02;;;;;;;6.10;2.08;;;;;;;-142.75;100.00;76208.09;5051468;28;20029;-67
2022/02/14 06:42:28;;;;;;;2.60;1.50;;;;;;;-142.75;100.00;76221.88;5051516;28;20029;-67
2022/02/14 06:44:53;;;;;;;4.45;1.80;;;;;;;-142.75;100.00;76237.63;5050472;28;20394;-68
2022/02/14 06:47:18;;;;;;;3.10;1.48;;;;;;;-142.75;100.00;76235.66;5051637;28;20494;-68
2022/02/14 06:49:44;;;;;;;2.83;1.70;;;;;;;-142.75;100.00;76239.59;5051196;28;20044;-68
2022/02/14 06:52:09;;;;;;;6.07;1.60;;;;;;;-142.75;100.00;76245.50;5051662;28;20021;-68
2022/02/14 06:54:34;;;;;;;5.88;1.50;;;;;;;-142.75;100.00;76249.44;5055483;28;20075;-68
2022/02/14 06:56:59;;;;;;;3.58;1.70;;;;;;;-142.75;100.00;76255.34;5055721;28;20025;-67
2022/02/14 06:59:25;;;;;;;3.70;1.43;;;;;;;-142.75;100.00;76267.16;5054037;28;20021;-67
2022/02/14 07:01:51;;;;;;;7.57;1.67;;;;;;;-142.75;100.00;76271.09;5055578;28;20027;-68
2022/02/14 07:04:16;;;;;;;10.63;1.73;;;;;;;-142.75;100.00;76278.97;5055579;28;20036;-67
2022/02/14 07:06:41;;;;;;;4.13;1.58;;;;;;;-142.75;100.00;76290.78;5055573;28;20028;-68
2022/02/14 07:09:07;;;;;;;5.75;1.60;;;;;;;-142.75;100.00;76290.78;5055193;28;20036;-67
2022/02/14 07:11:32;;;;;;;2.88;1.30;;;;;;;-142.75;100.00;76294.72;5055458;28;20024;-68
2022/02/14 07:13:58;;;;;;;7.70;2.03;;;;;;;-142.75;100.00;76294.72;5054156;28;20457;-67
2022/02/14 07:16:23;;;;;;;7.20;2.00;;;;;;;-142.75;100.00;76292.75;5054071;28;20017;-67
2022/02/14 07:18:48;;;;;;;6.50;2.00;;;;;;;-142.75;100.00;76298.66;5054889;28;20328;-67
2022/02/14 07:21:15;;;;;;;5.82;2.00;;;;;;;-142.75;100.00;76302.59;5054882;28;20056;-67
2022/02/14 07:23:40;;;;;;;8.60;1.87;;;;;;;-142.75;100.00;76308.50;5055102;28;20024;-67
2022/02/14 07:26:06;;;;;;;5.60;2.00;;;;;;;-142.75;100.00;76320.31;5053686;28;20491;-66
2022/02/14 07:28:31;;;;;;;5.78;1.75;;;;;;;-142.75;100.00;76324.25;5053745;28;20279;-66
2022/02/14 07:30:57;;;;;;;3.85;1.88;;;;;;;-142.75;100.00;76330.16;5052910;28;20129;-66
2022/02/14 07:33:22;;;;;;;4.40;1.95;;;;;;;-142.75;100.00;76330.16;5053897;28;20043;-67
2022/02/14 07:35:48;;;;;;;9.23;2.22;;;;;;;-142.75;100.00;76330.16;5054058;28;20025;-67
2022/02/14 07:38:13;;;;;;;5.45;1.90;;;;;;;-142.75;100.00;76341.97;5052444;28;20025;-67
2022/02/14 07:40:39;;;;;;;4.03;1.77;;;;;;;-142.75;100.00;76343.94;5053793;28;20122;-67
2022/02/14 07:43:04;;;;;;;8.93;1.98;;;;;;;-142.75;100.00;76349.81;5053869;28;20029;-67
2022/02/14 07:45:29;;;;;;;7.80;2.10;;;;;;;-142.75;100.00;76347.84;5054101;28;20064;-66
2022/02/14 07:47:55;;;;;;;7.90;2.10;;;;;;;-142.75;100.00;76343.94;5053681;28;20013;-66
2022/02/14 07:50:23;;;;;;;5.63;1.97;;;;;;;-142.75;100.00;76341.97;5053557;28;20132;-67
2022/02/14 07:52:50;;;;;;;4.63;1.87;;;;;;;-142.75;100.00;76338.03;5053633;28;20048;-67
2022/02/14 07:55:15;;;;;;;5.20;1.70;;;;;;;-142.75;100.00;76330.16;5052218;28;20044;-68
2022/02/14 07:57:40;;;;;;;4.57;1.83;;;;;;;-142.75;100.00;76341.97;5053460;28;20730;-66
2022/02/14 08:00:07;;;;;;;5.88;1.77;;;;;;;-142.75;100.00;76343.94;5053336;28;20032;-67
2022/02/14 08:02:33;;;;;;;3.00;1.23;;;;;;;-142.75;100.00;76343.94;5053547;28;20104;-66
2022/02/14 08:04:58;;;;;;;4.38;1.27;;;;;;;-142.75;100.00;76338.03;5052076;28;20112;-68
2022/02/14 08:07:23;;;;;;;4.10;1.60;;;;;;;-142.75;100.00;76334.09;5053607;28;20083;-67
2022/02/14 08:09:49;;;;;;;4.55;1.45;;;;;;;-142.75;100.00;76343.94;5052735;28;20017;-66
2022/02/14 08:12:14;;;;;;;2.90;1.20;;;;;;;-142.75;100.00;76357.69;5053583;28;20056;-66
2022/02/14 08:14:40;;;;;;;4.80;1.10;;;;;;;-142.75;100.00;76361.63;5053413;28;20025;-66
2022/02/14 08:17:06;;;;;;;3.83;1.85;;;;;;;-142.75;100.00;76369.50;5053324;28;20267;-67
2022/02/14 08:19:34;;;;;;;4.57;1.15;;;;;;;-142.75;100.00;76377.38;5053110;28;20556;-66
2022/02/14 08:22:00;;;;;;;5.80;1.47;;;;;;;-142.75;100.00;76383.28;5053218;28;20071;-66
2022/02/14 08:24:26;;;;;;;2.45;1.25;;;;;;;-142.75;100.00;76385.25;5052502;28;20494;-67
2022/02/14 08:26:51;;;;;;;2.83;1.50;;;;;;;-142.75;100.00;76387.22;5051792;28;20027;-65
2022/02/14 08:29:17;;;;;;;4.78;2.13;;;;;;;-142.75;100.00;76383.28;5052769;28;20107;-65
2022/02/14 08:31:42;;;;;;;3.67;1.65;;;;;;;-142.75;100.00;76375.41;5052913;28;20143;-65
2022/02/14 08:34:07;;;;;;;6.05;1.70;;;;;;;-142.75;100.00;76367.53;5052958;28;20029;-67
2022/02/14 08:36:33;;;;;;;4.95;1.92;;;;;;;-142.75;100.00;76367.53;5052686;28;20032;-67
2022/02/14 08:38:59;;;;;;;5.88;1.77;;;;;;;-142.75;100.00;76377.38;5052117;28;20100;-68
2022/02/14 08:41:24;;;;;;;5.35;2.20;;;;;;;-142.75;100.00;76379.34;5051553;28;20659;-66
2022/02/14 08:43:50;;;;;;;6.90;2.13;;;;;;;-142.75;100.00;76379.34;5039614;28;20053;-67
2022/02/14 08:46:19;;;;;;;4.95;1.85;;;;;;;-142.75;100.00;76373.44;5041765;28;20113;-67
2022/02/14 08:48:45;;;;;;;4.63;2.20;;;;;;;-142.75;100.00;76381.31;5041878;28;20029;-67
2022/02/14 08:51:10;;;;;;;4.38;1.90;;;;;;;-142.75;100.00;76389.19;5046046;28;20033;-66
2022/02/14 08:53:37;;;;;;;5.22;2.50;;;;;;;-142.75;100.00;76397.06;5042711;28;20082;-67
2022/02/14 08:56:07;;;;;;;5.37;2.43;;;;;;;-142.75;100.00;76395.09;5042720;28;20021;-67
2022/02/14 08:58:36;;;;;;;5.30;2.40;;;;;;;-142.75;100.00;76402.97;5051218;28;20029;-67
2022/02/14 09:01:04;;;;;;;9.50;2.80;;;;;;;-142.75;100.00;76408.88;5051296;28;20437;-66
2022/02/14 09:03:29;;;;;;;9.10;2.80;;;;;;;-142.75;100.00;76401.00;5052412;28;20103;-67
2022/02/14 09:05:54;;;;;;;6.25;2.50;;;;;;;-142.75;100.00;76420.69;5052324;28;20104;-67
2022/02/14 09:08:22;;;;;;;7.10;2.90;;;;;;;-142.75;100.00;76416.75;5050420;28;20021;-67
2022/02/14 09:10:47;;;;;;;6.17;2.60;;;;;;;-142.75;100.00;76399.03;5051696;28;20154;-66
2022/02/14 09:13:13;;;;;;;3.00;2.00;;;;;;;-142.75;100.00;76408.88;5049728;28;20104;-67
2022/02/14 09:15:38;;;;;;;5.13;2.33;;;;;;;-142.75;100.00;76399.03;5051431;28;20106;-67
2022/02/14 09:18:05;;;;;;;5.35;2.75;;;;;;;-142.75;100.00;76397.06;5050086;28;20095;-67
2022/02/14 09:20:30;;;;;;;5.73;2.20;;;;;;;-142.75;100.00;76385.25;5035877;28;20036;-67
2022/02/14 09:22:56;;;;;;;4.28;2.38;;;;;;;-142.75;100.00;76387.22;5031644;28;20383;-67
2022/02/14 09:25:22;;;;;;;6.15;2.10;;;;;;;-142.75;100.00;76401.00;5030987;28;20499;-66
2022/02/14 09:27:47;;;;;;;4.33;1.90;;;;;;;-142.75;100.00;76393.13;5031730;28;20087;-66
2022/02/14 09:30:13;;;;;;;5.28;1.85;;;;;;;-142.75;100.00;76383.28;5031949;28;20026;-67
2022/02/14 09:32:39;;;;;;;4.80;1.52;;;;;;;-142.75;100.00;76393.13;5032055;28;20028;-66
2022/02/14 09:35:05;;;;;;;5.15;1.90;;;;;;;-142.75;100.00;76401.00;5031778;28;20025;-66
2022/02/14 09:37:31;;;;;;;5.37;1.70;;;;;;;-142.75;100.00;76401.00;5031658;28;20029;-67
2022/02/14 09:39:57;;;;;;;;;;;;;;;-142.75;100.00;76389.19;5040696;28;20021;-67
2022/02/14 09:42:22;;;;;;;7.20;2.30;;;;;;;-142.75;100.00;76406.91;5050270;28;20366;-67
2022/02/14 09:44:48;;;;;;;4.20;1.90;;;;;;;-142.75;100.00;76397.06;5051660;28;20035;-67
2022/02/14 09:47:14;;;;;;;5.70;2.15;;;;;;;-142.75;100.00;76377.38;5050532;28;20394;-67
2022/02/14 09:49:41;;;;;;;6.38;1.67;;;;;;;-142.75;100.00;76373.44;5050914;28;20043;-67
2022/02/14 09:52:08;;;;;;;4.63;1.70;;;;;;;-142.75;100.00;76387.22;5051502;28;20382;-67
2022/02/14 09:54:33;;;;;;;7.45;1.52;;;;;;;-142.75;100.00;76383.28;5049974;28;20029;-67
2022/02/14 09:56:58;;;;;;;4.78;1.27;;;;;;;-142.75;100.00;76371.47;5050090;28;20032;-68
2022/02/14 09:59:24;;;;;;;6.85;1.80;;;;;;;-142.75;100.00;76373.44;5049733;28;20025;-67
2022/02/14 10:01:50;;;;;;;5.97;1.30;;;;;;;-142.75;100.00;76377.38;5050588;28;20083;-67
2022/02/14 10:04:15;;;;;;;6.57;1.70;;;;;;;-142.75;100.00;76373.44;5051237;28;20021;-67
2022/02/14 10:06:45;;;;;;;5.45;1.48;;;;;;;-142.75;100.00;76371.47;5049880;28;20060;-66
2022/02/14 10:09:19;;;;;;;5.23;1.90;;;;;;;-142.75;100.00;76369.50;5050705;28;20067;-66
2022/02/14 10:11:56;;;;;;;4.53;1.57;;;;;;;-142.75;100.00;76379.34;5051276;28;20035;-67
2022/02/14 10:14:22;;;;;;;6.27;1.80;;;;;;;-142.75;100.00;76373.44;5049840;28;20032;-67
2022/02/14 10:17:09;;;;;;;4.85;2.65;;;;;;;-142.75;100.00;76381.31;5051123;28;20029;-67
2022/02/14 10:19:39;;;;;;;7.57;2.23;;;;;;;-142.75;100.00;76381.31;5050619;28;20517;-67
2022/02/14 10:22:08;;;;;;;7.00;1.70;;;;;;;-142.75;100.00;76371.47;5051028;28;20525;-67
2022/02/14 10:24:39;;;;;;;6.97;1.67;;;;;;;-142.75;100.00;76373.44;5050876;28;20029;-68
2022/02/14 10:27:07;;;;;;;11.18;2.10;;;;;;;-142.75;100.00;76385.25;5049112;28;20032;-67
2022/02/14 10:29:32;;;;;;;5.87;1.67;;;;;;;-142.75;100.00;76389.19;5050129;28;20021;-67
2022/02/14 10:32:05;;;;;;;6.72;1.50;;;;;;;-142.75;100.00;76379.34;5051013;28;20398;-67
2022/02/14 10:34:40;;;;;;;7.37;1.47;;;;;;;-142.75;100.00;76402.97;5050873;28;20081;-67
2022/02/14 10:37:10;;;;;;;7.27;1.57;;;;;;;-142.75;100.00;76393.13;5050587;28;20036;-67
2022/02/14 10:39:37;;;;;;;10.60;1.30;;;;;;;-142.75;100.00;76399.03;5049146;28;20082;-67
2022/02/14 10:42:09;;;;;;;9.90;1.43;;;;;;;-142.75;100.00;76401.00;5050617;28;20037;-67
2022/02/14 10:47:35;;;;;;;7.30;1.38;;;;;;;-142.75;100.00;76399.03;5050963;28;20498;-67
2022/02/14 10:50:17;;;;;;;7.03;1.02;;;;;;;-142.75;100.00;76381.31;5048963;28;20024;-67
2022/02/14 10:52:58;;;;;;;8.00;1.43;;;;;;;-142.75;100.00;76379.34;5050565;28;20017;-67
2022/02/14 10:55:33;;;;;;;3.75;0.98;;;;;;;-142.75;100.00;76389.19;5050760;28;20055;-67
2022/02/14 10:57:59;;;;;;;8.07;1.13;;;;;;;-142.75;100.00;76306.53;5049056;28;20067;-67
2022/02/14 11:00:25;;;;;;;6.05;1.20;;;;;;;-142.75;100.00;76259.28;5050317;28;20099;-67
2022/02/14 11:02:53;;;;;;;6.20;1.10;;;;;;;-142.75;100.00;76186.47;5049201;28;20463;-67
2022/02/14 11:05:20;;;;;;;5.90;1.10;;;;;;;-142.75;100.00;76113.63;5050507;28;20017;-67
2022/02/14 11:07:46;;;;;;;13.05;1.67;;;;;;;-142.75;100.00;76046.72;5050297;28;20079;-67